Stewarts Point, Nevada
Current Conditions -  °F | °C
As of 4:58 AM on Sunday 23 Nov 2014 (Local Time) from KLSV Reporting Station
Clear Clear  
Wind Chill: 54°   Ceiling: Unl
Heat Index: 54°   Visibility: 10mi
Dew Point: 22°   Wind: 13mph
Humidity: 29%   Direction: 350°N
Pressure: 30.14"   Gusts: 22mph
Location:  36.5809°N, 114.605°W
Report Text: KLSV 231258Z AUTO 35011G19KT 250V010 10SM CLR 12/M06 A3014 RMK AO2 SLP199 T01211057
Loading
Personal Weather Stations






























Interactive Weather Map New forecast layout! Learn more

10-Day Weather Forecast

Advertisements
Track Severe Weather on mobile